Klickitat, WA

7:22 PM PDT on June 28, 2017 (GMT -0700)
Mustang Haven | | Change Station

Elev 1585 ft 45.81 °N, 120.96 °W | Updated 9 seconds ago

Clear
Clear
69.4 °F
Feels Like 69.4 °F
N
0.2
Wind Variable Wind from SSW
Gusts 2.5 mph

Today
High -- | Low -- °F
--% Chance of Precip.
Yesterday
High -- | Low -- °F
Precip. -- in
Pressure 29.92 in
Visibility 10.0 miles
Clouds Clear
Dew Point 50 °F
Humidity 50%
Rainfall 0.00 in
Snow Depth Not available.
5:17 AM 8:58 PM
Waxing Crescent, 30% visible
METAR KDLS 290153Z AUTO 30010G20KT 10SM CLR 23/08 A2992 RMK AO2 PK WND 29029/0106 SLP130 T02330083
Pressure 29.92 in
Visibility 10.0 miles
Clouds Clear
Dew Point 50 °F
Humidity 50%
Rainfall 0.00 in
Snow Depth Not available.
5:17 AM 8:58 PM
Waxing Crescent, 30% visible
METAR KDLS 290153Z AUTO 30010G20KT 10SM CLR 23/08 A2992 RMK AO2 PK WND 29029/0106 SLP130 T02330083

Get Severe Weather Alerts

Thanks for signing up!

Be on the lookout for a verification email in your inbox.

You'll start receiving the daily forecast at 6 AM.

×

10-Day Weather Forecast

Almanac

Astronomy

Jun. 28, 2017 Rise Set
Actual Time
Civil Twilight
Nautical Twilight
Astronomical Twilight
Moon
Length of Visible Light
Length of Day
Tomorrow will be .
, % of the Moon is Illuminated

Today's Extremes

State Highs State Lows

Community

WunderPhotos

Category 6

Welcome to Category 6. This is the collective home for Weather Underground's featured writeups by Dr. Jeff Masters (right), Bob Henson (left), Chris Burt, and other regular contributors.

Nearby

Air Quality

  Air Quality AQ Index Pollutant
Not available.

Snow Depth

Station Depth Elevation

Earthquake Activity

City Distance Mag. Time & Date
Minimum magnitude displayed is 2.5.

Coastal Water Temperatures

Place Temperature

Stations

Nearby Weather Stations

Station Location Temp. Windchill Dew Point Humidity Wind Precip. Elev Updated Type
                   

Watches & Warnings

There are currently no watches in effect.